sensor_id;sensor_type;location;lat;lon;timestamp;P1;P2;P0
71794;PMS7003;59641;45.188;5.712;2023-04-01T00:00:17;2.25;2.25;2.00
71794;PMS7003;59641;45.188;5.712;2023-04-01T00:02:43;1.80;1.80;1.60
71794;PMS7003;59641;45.188;5.712;2023-04-01T00:05:09;2.00;2.00;2.00
71794;PMS7003;59641;45.188;5.712;2023-04-01T00:07:36;0.80;0.80;0.80
71794;PMS7003;59641;45.188;5.712;2023-04-01T00:10:03;2.00;2.00;1.80
71794;PMS7003;59641;45.188;5.712;2023-04-01T00:12:29;2.40;2.40;1.80
71794;PMS7003;59641;45.188;5.712;2023-04-01T00:14:54;3.25;1.50;1.00
71794;PMS7003;59641;45.188;5.712;2023-04-01T00:17:20;1.50;1.50;1.25
71794;PMS7003;59641;45.188;5.712;2023-04-01T00:19:46;1.00;0.75;0.25
71794;PMS7003;59641;45.188;5.712;2023-04-01T00:22:11;2.00;1.00;1.00
71794;PMS7003;59641;45.188;5.712;2023-04-01T00:24:37;1.00;1.00;0.25
71794;PMS7003;59641;45.188;5.712;2023-04-01T00:27:03;1.20;1.00;0.80
71794;PMS7003;59641;45.188;5.712;2023-04-01T00:29:29;1.80;0.80;0.80
71794;PMS7003;59641;45.188;5.712;2023-04-01T00:31:58;1.80;1.80;1.20
71794;PMS7003;59641;45.188;5.712;2023-04-01T00:34:23;1.40;1.40;1.20
71794;PMS7003;59641;45.188;5.712;2023-04-01T00:36:52;1.00;1.00;1.00
71794;PMS7003;59641;45.188;5.712;2023-04-01T00:39:19;1.20;1.20;0.80
71794;PMS7003;59641;45.188;5.712;2023-04-01T00:41:45;2.60;1.60;0.80
71794;PMS7003;59641;45.188;5.712;2023-04-01T00:44:14;2.50;2.50;1.00
71794;PMS7003;59641;45.188;5.712;2023-04-01T00:46:50;1.00;1.00;0.80
71794;PMS7003;59641;45.188;5.712;2023-04-01T00:49:17;0.20;0.20;0.20
71794;PMS7003;59641;45.188;5.712;2023-04-01T00:51:47;1.20;1.20;0.80
71794;PMS7003;59641;45.188;5.712;2023-04-01T00:54:17;0.60;0.60;0.40
71794;PMS7003;59641;45.188;5.712;2023-04-01T00:56:46;2.00;1.20;0.80
71794;PMS7003;59641;45.188;5.712;2023-04-01T00:59:18;1.80;1.60;0.60
71794;PMS7003;59641;45.188;5.712;2023-04-01T01:01:47;0.40;0.40;0.00
71794;PMS7003;59641;45.188;5.712;2023-04-01T01:04:22;2.00;1.00;0.00
71794;PMS7003;59641;45.188;5.712;2023-04-01T01:09:45;0.80;0.80;0.80
71794;PMS7003;59641;45.188;5.712;2023-04-01T01:15:05;2.60;2.60;1.00
71794;PMS7003;59641;45.188;5.712;2023-04-01T01:17:35;2.60;1.00;0.80
71794;PMS7003;59641;45.188;5.712;2023-04-01T01:25:32;0.80;0.80;0.80
71794;PMS7003;59641;45.188;5.712;2023-04-01T01:31:37;1.80;1.60;0.80
71794;PMS7003;59641;45.188;5.712;2023-04-01T01:36:48;1.00;1.00;0.80
71794;PMS7003;59641;45.188;5.712;2023-04-01T01:39:21;1.40;1.40;0.80
71794;PMS7003;59641;45.188;5.712;2023-04-01T01:41:52;0.40;0.40;0.20
71794;PMS7003;59641;45.188;5.712;2023-04-01T01:44:21;1.20;0.80;0.80
71794;PMS7003;59641;45.188;5.712;2023-04-01T01:46:47;1.00;1.00;1.00
71794;PMS7003;59641;45.188;5.712;2023-04-01T01:49:14;1.80;1.80;0.80
71794;PMS7003;59641;45.188;5.712;2023-04-01T01:51:43;1.40;1.20;0.80
71794;PMS7003;59641;45.188;5.712;2023-04-01T01:54:12;1.00;1.00;1.00
71794;PMS7003;59641;45.188;5.712;2023-04-01T01:56:38;1.80;0.80;0.80
71794;PMS7003;59641;45.188;5.712;2023-04-01T01:59:07;1.80;1.20;0.00
71794;PMS7003;59641;45.188;5.712;2023-04-01T02:01:37;0.40;0.40;0.00
71794;PMS7003;59641;45.188;5.712;2023-04-01T02:04:06;2.60;0.60;0.60
71794;PMS7003;59641;45.188;5.712;2023-04-01T02:06:35;1.80;1.80;0.20
71794;PMS7003;59641;45.188;5.712;2023-04-01T02:09:08;0.80;0.80;0.60
71794;PMS7003;59641;45.188;5.712;2023-04-01T02:11:41;0.80;0.80;0.20
71794;PMS7003;59641;45.188;5.712;2023-04-01T02:14:16;1.80;1.80;0.80
71794;PMS7003;59641;45.188;5.712;2023-04-01T02:16:53;0.80;0.80;0.20
71794;PMS7003;59641;45.188;5.712;2023-04-01T02:19:31;2.00;1.80;0.80
71794;PMS7003;59641;45.188;5.712;2023-04-01T02:22:04;1.40;1.40;0.80
71794;PMS7003;59641;45.188;5.712;2023-04-01T02:24:35;0.80;0.40;0.40
71794;PMS7003;59641;45.188;5.712;2023-04-01T02:27:03;0.60;0.60;0.40
71794;PMS7003;59641;45.188;5.712;2023-04-01T02:29:29;1.25;1.00;1.00
71794;PMS7003;59641;45.188;5.712;2023-04-01T02:31:55;1.00;1.00;1.00
71794;PMS7003;59641;45.188;5.712;2023-04-01T02:34:21;0.00;0.00;0.00
71794;PMS7003;59641;45.188;5.712;2023-04-01T02:36:48;0.80;0.80;0.00
71794;PMS7003;59641;45.188;5.712;2023-04-01T02:39:15;1.25;0.75;0.50
71794;PMS7003;59641;45.188;5.712;2023-04-01T02:41:42;0.20;0.20;0.00
71794;PMS7003;59641;45.188;5.712;2023-04-01T02:44:08;1.20;0.80;0.20
71794;PMS7003;59641;45.188;5.712;2023-04-01T02:46:35;1.00;1.00;0.80
71794;PMS7003;59641;45.188;5.712;2023-04-01T02:49:00;1.00;1.00;0.00
71794;PMS7003;59641;45.188;5.712;2023-04-01T02:51:26;0.75;0.75;0.00
71794;PMS7003;59641;45.188;5.712;2023-04-01T02:53:51;1.00;1.00;0.25
71794;PMS7003;59641;45.188;5.712;2023-04-01T02:56:17;0.25;0.00;0.00
71794;PMS7003;59641;45.188;5.712;2023-04-01T02:58:44;0.80;0.80;0.80
71794;PMS7003;59641;45.188;5.712;2023-04-01T03:01:09;1.75;1.00;0.25
71794;PMS7003;59641;45.188;5.712;2023-04-01T03:03:35;1.00;1.00;1.00
71794;PMS7003;59641;45.188;5.712;2023-04-01T03:06:07;1.75;1.75;0.75
71794;PMS7003;59641;45.188;5.712;2023-04-01T03:08:33;2.00;1.60;0.80
71794;PMS7003;59641;45.188;5.712;2023-04-01T03:10:59;1.00;1.00;1.00
71794;PMS7003;59641;45.188;5.712;2023-04-01T03:13:25;0.50;0.50;0.50
71794;PMS7003;59641;45.188;5.712;2023-04-01T03:15:50;1.25;1.25;1.00
71794;PMS7003;59641;45.188;5.712;2023-04-01T03:18:15;1.00;1.00;1.00
71794;PMS7003;59641;45.188;5.712;2023-04-01T03:20:41;1.00;1.00;0.00
71794;PMS7003;59641;45.188;5.712;2023-04-01T03:23:07;2.00;2.00;1.00
71794;PMS7003;59641;45.188;5.712;2023-04-01T03:25:32;0.80;0.80;0.80
71794;PMS7003;59641;45.188;5.712;2023-04-01T03:27:58;3.75;1.75;1.00
71794;PMS7003;59641;45.188;5.712;2023-04-01T03:30:24;3.00;1.75;1.00
71794;PMS7003;59641;45.188;5.712;2023-04-01T03:32:50;3.80;2.60;1.60
71794;PMS7003;59641;45.188;5.712;2023-04-01T03:35:16;3.00;3.00;3.00
71794;PMS7003;59641;45.188;5.712;2023-04-01T03:37:41;2.25;1.50;0.75
71794;PMS7003;59641;45.188;5.712;2023-04-01T03:40:07;1.75;1.75;1.75
71794;PMS7003;59641;45.188;5.712;2023-04-01T03:42:33;4.00;2.75;1.75
71794;PMS7003;59641;45.188;5.712;2023-04-01T03:44:58;2.00;2.00;1.75
71794;PMS7003;59641;45.188;5.712;2023-04-01T03:47:24;1.75;1.75;0.75
71794;PMS7003;59641;45.188;5.712;2023-04-01T03:49:49;1.25;1.25;0.75
71794;PMS7003;59641;45.188;5.712;2023-04-01T03:52:14;1.75;1.75;1.75
71794;PMS7003;59641;45.188;5.712;2023-04-01T03:54:40;2.25;2.25;1.75
71794;PMS7003;59641;45.188;5.712;2023-04-01T03:57:05;1.75;1.75;1.75
71794;PMS7003;59641;45.188;5.712;2023-04-01T03:59:31;1.75;1.75;1.75
71794;PMS7003;59641;45.188;5.712;2023-04-01T04:01:56;1.50;1.50;1.50
71794;PMS7003;59641;45.188;5.712;2023-04-01T04:04:22;1.50;1.00;0.75
71794;PMS7003;59641;45.188;5.712;2023-04-01T04:06:47;2.75;2.75;0.75
71794;PMS7003;59641;45.188;5.712;2023-04-01T04:09:13;0.75;0.75;0.75
71794;PMS7003;59641;45.188;5.712;2023-04-01T04:11:38;2.00;2.00;1.00
71794;PMS7003;59641;45.188;5.712;2023-04-01T04:14:03;2.00;1.75;0.75
71794;PMS7003;59641;45.188;5.712;2023-04-01T04:16:29;2.00;1.50;1.00
71794;PMS7003;59641;45.188;5.712;2023-04-01T04:18:55;2.00;1.00;0.75
71794;PMS7003;59641;45.188;5.712;2023-04-01T04:21:20;1.50;1.50;1.25
71794;PMS7003;59641;45.188;5.712;2023-04-01T04:23:45;1.00;1.00;1.00
71794;PMS7003;59641;45.188;5.712;2023-04-01T04:26:12;1.25;1.25;1.25
71794;PMS7003;59641;45.188;5.712;2023-04-01T04:28:39;1.75;1.75;1.75
71794;PMS7003;59641;45.188;5.712;2023-04-01T04:31:05;1.80;1.80;1.80
71794;PMS7003;59641;45.188;5.712;2023-04-01T04:33:31;3.20;3.20;2.80
71794;PMS7003;59641;45.188;5.712;2023-04-01T04:35:57;2.50;1.75;0.75
71794;PMS7003;59641;45.188;5.712;2023-04-01T04:38:24;2.00;2.00;1.80
71794;PMS7003;59641;45.188;5.712;2023-04-01T04:40:50;4.20;1.80;1.20
71794;PMS7003;59641;45.188;5.712;2023-04-01T04:43:16;1.25;1.25;1.00
71794;PMS7003;59641;45.188;5.712;2023-04-01T04:45:42;1.40;1.40;0.60
71794;PMS7003;59641;45.188;5.712;2023-04-01T04:48:08;1.75;1.50;1.25
71794;PMS7003;59641;45.188;5.712;2023-04-01T04:50:34;2.00;1.80;0.80
71794;PMS7003;59641;45.188;5.712;2023-04-01T04:53:00;2.00;2.00;0.75
71794;PMS7003;59641;45.188;5.712;2023-04-01T04:55:26;2.75;2.75;1.75
71794;PMS7003;59641;45.188;5.712;2023-04-01T04:57:51;2.00;2.00;0.75
71794;PMS7003;59641;45.188;5.712;2023-04-01T05:00:16;2.75;2.75;1.75
71794;PMS7003;59641;45.188;5.712;2023-04-01T05:02:42;2.00;0.75;0.75
71794;PMS7003;59641;45.188;5.712;2023-04-01T05:05:07;3.25;1.75;1.00
71794;PMS7003;59641;45.188;5.712;2023-04-01T05:07:33;2.25;2.25;1.75
71794;PMS7003;59641;45.188;5.712;2023-04-01T05:09:59;4.50;2.50;1.75
71794;PMS7003;59641;45.188;5.712;2023-04-01T05:12:25;1.75;1.75;1.50
71794;PMS7003;59641;45.188;5.712;2023-04-01T05:14:50;3.00;2.25;1.75
71794;PMS7003;59641;45.188;5.712;2023-04-01T05:17:15;1.00;1.00;0.75
71794;PMS7003;59641;45.188;5.712;2023-04-01T05:19:41;1.50;0.75;0.75
71794;PMS7003;59641;45.188;5.712;2023-04-01T05:22:06;3.75;1.75;1.75
71794;PMS7003;59641;45.188;5.712;2023-04-01T05:24:32;2.75;1.75;1.75
71794;PMS7003;59641;45.188;5.712;2023-04-01T05:26:58;2.25;2.25;1.75
71794;PMS7003;59641;45.188;5.712;2023-04-01T05:29:24;3.00;2.40;2.20
71794;PMS7003;59641;45.188;5.712;2023-04-01T05:31:50;3.00;3.00;1.40
71794;PMS7003;59641;45.188;5.712;2023-04-01T05:34:15;2.75;2.75;1.75
71794;PMS7003;59641;45.188;5.712;2023-04-01T05:36:41;1.75;1.75;1.50
71794;PMS7003;59641;45.188;5.712;2023-04-01T05:39:07;1.80;1.80;1.80
71794;PMS7003;59641;45.188;5.712;2023-04-01T05:41:36;2.75;1.75;1.00
71794;PMS7003;59641;45.188;5.712;2023-04-01T05:44:02;2.80;2.00;1.80
71794;PMS7003;59641;45.188;5.712;2023-04-01T05:46:28;2.75;2.25;1.75
71794;PMS7003;59641;45.188;5.712;2023-04-01T05:48:54;2.25;1.75;1.25
71794;PMS7003;59641;45.188;5.712;2023-04-01T05:51:19;2.25;2.25;1.75
71794;PMS7003;59641;45.188;5.712;2023-04-01T05:53:45;3.25;3.25;2.25
71794;PMS7003;59641;45.188;5.712;2023-04-01T05:56:10;2.75;2.75;1.75
71794;PMS7003;59641;45.188;5.712;2023-04-01T05:58:36;4.50;3.00;1.75
71794;PMS7003;59641;45.188;5.712;2023-04-01T06:01:11;3.40;2.60;1.80
71794;PMS7003;59641;45.188;5.712;2023-04-01T06:03:36;3.20;2.20;1.80
71794;PMS7003;59641;45.188;5.712;2023-04-01T06:06:02;5.25;2.75;2.25
71794;PMS7003;59641;45.188;5.712;2023-04-01T06:08:29;2.25;2.00;1.75
71794;PMS7003;59641;45.188;5.712;2023-04-01T06:27:16;2.25;1.75;1.75
71794;PMS7003;59641;45.188;5.712;2023-04-01T06:35:28;3.00;2.00;2.00
71794;PMS7003;59641;45.188;5.712;2023-04-01T06:43:34;1.80;1.80;1.80
71794;PMS7003;59641;45.188;5.712;2023-04-01T06:54:31;5.40;5.40;3.80
71794;PMS7003;59641;45.188;5.712;2023-04-01T06:59:54;3.25;3.25;2.75
71794;PMS7003;59641;45.188;5.712;2023-04-01T07:05:23;5.80;2.80;2.00
71794;PMS7003;59641;45.188;5.712;2023-04-01T07:07:53;2.00;1.40;1.40
71794;PMS7003;59641;45.188;5.712;2023-04-01T07:10:23;1.60;1.60;1.20
71794;PMS7003;59641;45.188;5.712;2023-04-01T07:13:11;2.80;2.80;1.60
71794;PMS7003;59641;45.188;5.712;2023-04-01T07:15:46;3.40;2.80;1.40
71794;PMS7003;59641;45.188;5.712;2023-04-01T07:18:22;1.75;1.75;0.75
71794;PMS7003;59641;45.188;5.712;2023-04-01T07:21:10;2.80;1.60;1.60
71794;PMS7003;59641;45.188;5.712;2023-04-01T07:23:48;1.80;1.80;0.80
71794;PMS7003;59641;45.188;5.712;2023-04-01T07:26:18;2.00;2.00;1.80
71794;PMS7003;59641;45.188;5.712;2023-04-01T07:28:48;3.00;2.20;1.80
71794;PMS7003;59641;45.188;5.712;2023-04-01T07:31:24;2.20;1.80;1.80
71794;PMS7003;59641;45.188;5.712;2023-04-01T07:36:43;2.80;2.80;1.80
71794;PMS7003;59641;45.188;5.712;2023-04-01T07:52:59;2.80;2.80;2.20
71794;PMS7003;59641;45.188;5.712;2023-04-01T07:55:46;2.80;2.80;2.60
71794;PMS7003;59641;45.188;5.712;2023-04-01T08:01:13;3.20;2.00;1.80
71794;PMS7003;59641;45.188;5.712;2023-04-01T08:09:24;4.40;2.80;2.00
71794;PMS7003;59641;45.188;5.712;2023-04-01T08:14:56;3.40;1.80;1.20
71794;PMS7003;59641;45.188;5.712;2023-04-01T08:25:39;1.40;1.20;0.80
71794;PMS7003;59641;45.188;5.712;2023-04-01T08:28:15;0.80;0.80;0.80
71794;PMS7003;59641;45.188;5.712;2023-04-01T08:31:02;1.20;1.20;0.80
71794;PMS7003;59641;45.188;5.712;2023-04-01T08:33:35;1.60;1.40;0.80
71794;PMS7003;59641;45.188;5.712;2023-04-01T08:36:05;2.00;2.00;1.80
71794;PMS7003;59641;45.188;5.712;2023-04-01T08:38:40;2.60;2.60;1.80
71794;PMS7003;59641;45.188;5.712;2023-04-01T08:54:41;0.80;0.80;0.60
71794;PMS7003;59641;45.188;5.712;2023-04-01T08:57:28;0.80;0.80;0.80
71794;PMS7003;59641;45.188;5.712;2023-04-01T09:03:20;0.00;0.00;0.00
71794;PMS7003;59641;45.188;5.712;2023-04-01T09:27:44;0.40;0.40;0.00
71794;PMS7003;59641;45.188;5.712;2023-04-01T09:30:17;0.00;0.00;0.00
71794;PMS7003;59641;45.188;5.712;2023-04-01T09:38:21;0.40;0.00;0.00
71794;PMS7003;59641;45.188;5.712;2023-04-01T09:41:02;2.00;0.80;0.00
71794;PMS7003;59641;45.188;5.712;2023-04-01T09:46:23;0.00;0.00;0.00
71794;PMS7003;59641;45.188;5.712;2023-04-01T09:49:20;0.80;0.80;0.00
71794;PMS7003;59641;45.188;5.712;2023-04-01T10:19:49;0.80;0.80;0.00
71794;PMS7003;59641;45.188;5.712;2023-04-01T10:50:15;0.20;0.20;0.00
71794;PMS7003;59641;45.188;5.712;2023-04-01T10:58:41;0.80;0.40;0.20
71794;PMS7003;59641;45.188;5.712;2023-04-01T11:27:20;0.20;0.20;0.00
71794;PMS7003;59641;45.188;5.712;2023-04-01T11:36:22;0.40;0.40;0.00
71794;PMS7003;59641;45.188;5.712;2023-04-01T11:39:02;0.80;0.00;0.00
71794;PMS7003;59641;45.188;5.712;2023-04-01T11:41:56;1.00;0.00;0.00
71794;PMS7003;59641;45.188;5.712;2023-04-01T11:44:39;0.00;0.00;0.00
71794;PMS7003;59641;45.188;5.712;2023-04-01T11:52:31;1.00;0.00;0.00
71794;PMS7003;59641;45.188;5.712;2023-04-01T12:06:21;0.00;0.00;0.00
71794;PMS7003;59641;45.188;5.712;2023-04-01T12:09:09;0.20;0.20;0.20
71794;PMS7003;59641;45.188;5.712;2023-04-01T12:12:01;0.00;0.00;0.00
71794;PMS7003;59641;45.188;5.712;2023-04-01T12:30:45;0.00;0.00;0.00
71794;PMS7003;59641;45.188;5.712;2023-04-01T12:36:00;0.00;0.00;0.00
71794;PMS7003;59641;45.188;5.712;2023-04-01T12:41:39;0.00;0.00;0.00
71794;PMS7003;59641;45.188;5.712;2023-04-01T12:55:03;3.80;2.00;1.00
71794;PMS7003;59641;45.188;5.712;2023-04-01T13:00:48;0.00;0.00;0.00
71794;PMS7003;59641;45.188;5.712;2023-04-01T13:11:23;0.00;0.00;0.00
71794;PMS7003;59641;45.188;5.712;2023-04-01T13:16:42;0.20;0.00;0.00
71794;PMS7003;59641;45.188;5.712;2023-04-01T13:19:20;0.00;0.00;0.00
71794;PMS7003;59641;45.188;5.712;2023-04-01T13:22:34;0.00;0.00;0.00
71794;PMS7003;59641;45.188;5.712;2023-04-01T13:25:05;0.00;0.00;0.00
71794;PMS7003;59641;45.188;5.712;2023-04-01T13:27:42;0.00;0.00;0.00
71794;PMS7003;59641;45.188;5.712;2023-04-01T13:30:29;0.00;0.00;0.00
71794;PMS7003;59641;45.188;5.712;2023-04-01T13:33:10;0.00;0.00;0.00
71794;PMS7003;59641;45.188;5.712;2023-04-01T13:39:15;0.00;0.00;0.00
71794;PMS7003;59641;45.188;5.712;2023-04-01T13:41:55;0.00;0.00;0.00
71794;PMS7003;59641;45.188;5.712;2023-04-01T13:47:17;0.00;0.00;0.00
71794;PMS7003;59641;45.188;5.712;2023-04-01T13:52:49;0.00;0.00;0.00
71794;PMS7003;59641;45.188;5.712;2023-04-01T14:04:03;0.00;0.00;0.00
71794;PMS7003;59641;45.188;5.712;2023-04-01T14:09:59;0.00;0.00;0.00
71794;PMS7003;59641;45.188;5.712;2023-04-01T14:15:01;0.40;0.00;0.00
71794;PMS7003;59641;45.188;5.712;2023-04-01T14:17:49;0.00;0.00;0.00
71794;PMS7003;59641;45.188;5.712;2023-04-01T14:20:22;0.40;0.40;0.00
71794;PMS7003;59641;45.188;5.712;2023-04-01T14:26:00;0.00;0.00;0.00
71794;PMS7003;59641;45.188;5.712;2023-04-01T14:28:38;0.00;0.00;0.00
71794;PMS7003;59641;45.188;5.712;2023-04-01T14:31:38;0.00;0.00;0.00
71794;PMS7003;59641;45.188;5.712;2023-04-01T14:34:35;1.00;1.00;0.00
71794;PMS7003;59641;45.188;5.712;2023-04-01T14:37:35;0.00;0.00;0.00
71794;PMS7003;59641;45.188;5.712;2023-04-01T14:46:34;0.00;0.00;0.00
71794;PMS7003;59641;45.188;5.712;2023-04-01T14:49:36;0.00;0.00;0.00
71794;PMS7003;59641;45.188;5.712;2023-04-01T14:52:22;0.00;0.00;0.00
71794;PMS7003;59641;45.188;5.712;2023-04-01T14:54:52;0.00;0.00;0.00
71794;PMS7003;59641;45.188;5.712;2023-04-01T14:57:26;0.00;0.00;0.00
71794;PMS7003;59641;45.188;5.712;2023-04-01T14:59:59;0.00;0.00;0.00
71794;PMS7003;59641;45.188;5.712;2023-04-01T15:16:27;0.00;0.00;0.00
71794;PMS7003;59641;45.188;5.712;2023-04-01T15:21:50;0.00;0.00;0.00
71794;PMS7003;59641;45.188;5.712;2023-04-01T15:27:36;0.00;0.00;0.00
71794;PMS7003;59641;45.188;5.712;2023-04-01T15:30:32;0.00;0.00;0.00
71794;PMS7003;59641;45.188;5.712;2023-04-01T15:33:02;1.40;0.80;0.60
71794;PMS7003;59641;45.188;5.712;2023-04-01T15:38:04;4.00;2.25;2.00
71794;PMS7003;59641;45.188;5.712;2023-04-01T15:43:12;1.80;0.80;0.80
71794;PMS7003;59641;45.188;5.712;2023-04-01T15:56:54;0.00;0.00;0.00
71794;PMS7003;59641;45.188;5.712;2023-04-01T15:59:52;3.00;1.60;0.60
71794;PMS7003;59641;45.188;5.712;2023-04-01T16:07:57;0.80;0.80;0.80
71794;PMS7003;59641;45.188;5.712;2023-04-01T16:13:13;0.80;0.80;0.80
71794;PMS7003;59641;45.188;5.712;2023-04-01T16:24:33;2.60;1.80;1.00
71794;PMS7003;59641;45.188;5.712;2023-04-01T16:32:50;1.80;1.80;0.80
71794;PMS7003;59641;45.188;5.712;2023-04-01T16:37:53;1.60;0.80;0.80
71794;PMS7003;59641;45.188;5.712;2023-04-01T16:40:47;0.60;0.60;0.20
71794;PMS7003;59641;45.188;5.712;2023-04-01T16:46:12;0.80;0.00;0.00
71794;PMS7003;59641;45.188;5.712;2023-04-01T16:48:59;0.00;0.00;0.00
71794;PMS7003;59641;45.188;5.712;2023-04-01T16:56:53;0.00;0.00;0.00
71794;PMS7003;59641;45.188;5.712;2023-04-01T16:59:29;0.00;0.00;0.00
71794;PMS7003;59641;45.188;5.712;2023-04-01T17:10:13;1.00;0.00;0.00
71794;PMS7003;59641;45.188;5.712;2023-04-01T17:18:59;0.80;0.80;0.00
71794;PMS7003;59641;45.188;5.712;2023-04-01T17:26:35;2.25;2.25;1.25
71794;PMS7003;59641;45.188;5.712;2023-04-01T17:40:27;0.60;0.00;0.00
71794;PMS7003;59641;45.188;5.712;2023-04-01T17:43:07;0.00;0.00;0.00
71794;PMS7003;59641;45.188;5.712;2023-04-01T17:45:56;0.00;0.00;0.00
71794;PMS7003;59641;45.188;5.712;2023-04-01T17:51:24;1.00;1.00;1.00
71794;PMS7003;59641;45.188;5.712;2023-04-01T17:59:26;4.80;3.60;2.20
71794;PMS7003;59641;45.188;5.712;2023-04-01T18:07:22;0.75;0.75;0.75
71794;PMS7003;59641;45.188;5.712;2023-04-01T18:25:54;0.80;0.00;0.00
71794;PMS7003;59641;45.188;5.712;2023-04-01T18:28:52;1.00;1.00;0.75
71794;PMS7003;59641;45.188;5.712;2023-04-01T18:31:24;2.00;1.80;0.80
71794;PMS7003;59641;45.188;5.712;2023-04-01T18:34:07;1.80;1.80;1.00
71794;PMS7003;59641;45.188;5.712;2023-04-01T18:36:53;2.40;1.80;0.60
71794;PMS7003;59641;45.188;5.712;2023-04-01T18:39:37;3.20;2.80;1.00
71794;PMS7003;59641;45.188;5.712;2023-04-01T18:45:35;1.60;0.60;0.60
71794;PMS7003;59641;45.188;5.712;2023-04-01T18:51:02;2.50;2.50;1.50
71794;PMS7003;59641;45.188;5.712;2023-04-01T18:53:39;3.40;2.60;2.40
71794;PMS7003;59641;45.188;5.712;2023-04-01T19:21:57;3.25;3.00;2.00
71794;PMS7003;59641;45.188;5.712;2023-04-01T19:27:03;3.60;1.00;0.20
71794;PMS7003;59641;45.188;5.712;2023-04-01T19:43:03;3.00;3.00;2.25
71794;PMS7003;59641;45.188;5.712;2023-04-01T19:45:41;2.25;2.00;1.50
71794;PMS7003;59641;45.188;5.712;2023-04-01T19:54:13;4.00;4.00;3.00
71794;PMS7003;59641;45.188;5.712;2023-04-01T19:56:56;3.50;3.50;2.75
71794;PMS7003;59641;45.188;5.712;2023-04-01T19:59:39;3.20;2.80;1.60
71794;PMS7003;59641;45.188;5.712;2023-04-01T20:04:37;4.00;4.00;3.25
71794;PMS7003;59641;45.188;5.712;2023-04-01T20:07:09;4.00;3.00;3.00
71794;PMS7003;59641;45.188;5.712;2023-04-01T20:15:45;3.00;3.00;3.00
71794;PMS7003;59641;45.188;5.712;2023-04-01T20:18:32;2.25;2.25;2.00
71794;PMS7003;59641;45.188;5.712;2023-04-01T20:21:06;2.00;2.00;1.60
71794;PMS7003;59641;45.188;5.712;2023-04-01T20:23:52;3.00;3.00;3.00
71794;PMS7003;59641;45.188;5.712;2023-04-01T20:26:25;3.50;3.00;2.00
71794;PMS7003;59641;45.188;5.712;2023-04-01T20:29:02;2.50;2.50;1.75
71794;PMS7003;59641;45.188;5.712;2023-04-01T20:32:30;0.60;0.60;0.60
71794;PMS7003;59641;45.188;5.712;2023-04-01T20:46:14;0.00;0.00;0.00
71794;PMS7003;59641;45.188;5.712;2023-04-01T20:51:30;0.20;0.20;0.20
71794;PMS7003;59641;45.188;5.712;2023-04-01T20:57:09;0.00;0.00;0.00
71794;PMS7003;59641;45.188;5.712;2023-04-01T21:02:51;0.00;0.00;0.00
71794;PMS7003;59641;45.188;5.712;2023-04-01T21:05:43;1.00;1.00;1.00
71794;PMS7003;59641;45.188;5.712;2023-04-01T21:10:51;4.00;4.00;3.50
71794;PMS7003;59641;45.188;5.712;2023-04-01T21:20:01;5.75;5.00;4.00
71794;PMS7003;59641;45.188;5.712;2023-04-01T21:23:01;4.00;4.00;3.00
71794;PMS7003;59641;45.188;5.712;2023-04-01T21:26:39;7.25;6.50;5.75
71794;PMS7003;59641;45.188;5.712;2023-04-01T21:34:43;3.00;3.00;3.00
71794;PMS7003;59641;45.188;5.712;2023-04-01T21:37:25;6.00;6.00;5.00
71794;PMS7003;59641;45.188;5.712;2023-04-01T21:45:19;3.20;3.00;2.60
71794;PMS7003;59641;45.188;5.712;2023-04-01T21:50:47;2.60;2.60;1.60
71794;PMS7003;59641;45.188;5.712;2023-04-01T22:18:56;2.20;2.00;1.40
71794;PMS7003;59641;45.188;5.712;2023-04-01T22:24:25;3.20;2.00;1.00
71794;PMS7003;59641;45.188;5.712;2023-04-01T22:26:56;4.20;2.60;1.80
71794;PMS7003;59641;45.188;5.712;2023-04-01T22:36:09;3.20;3.20;2.00
71794;PMS7003;59641;45.188;5.712;2023-04-01T22:41:53;0.00;0.00;0.00
71794;PMS7003;59641;45.188;5.712;2023-04-01T22:44:30;2.00;2.00;2.00
71794;PMS7003;59641;45.188;5.712;2023-04-01T22:47:12;1.20;1.20;1.00
71794;PMS7003;59641;45.188;5.712;2023-04-01T22:52:30;3.50;3.25;3.00
71794;PMS7003;59641;45.188;5.712;2023-04-01T22:55:04;3.00;3.00;2.25
71794;PMS7003;59641;45.188;5.712;2023-04-01T23:03:40;1.00;1.00;1.00
71794;PMS7003;59641;45.188;5.712;2023-04-01T23:06:06;2.00;2.00;1.50
71794;PMS7003;59641;45.188;5.712;2023-04-01T23:08:51;2.20;2.20;2.00
71794;PMS7003;59641;45.188;5.712;2023-04-01T23:11:28;2.40;2.40;2.00
71794;PMS7003;59641;45.188;5.712;2023-04-01T23:14:15;3.75;3.00;2.00
71794;PMS7003;59641;45.188;5.712;2023-04-01T23:24:58;2.00;2.00;1.75
71794;PMS7003;59641;45.188;5.712;2023-04-01T23:30:51;1.20;1.20;1.00
71794;PMS7003;59641;45.188;5.712;2023-04-01T23:38:39;0.00;0.00;0.00
71794;PMS7003;59641;45.188;5.712;2023-04-01T23:41:07;0.80;0.80;0.00
71794;PMS7003;59641;45.188;5.712;2023-04-01T23:43:42;0.00;0.00;0.00
71794;PMS7003;59641;45.188;5.712;2023-04-01T23:46:10;2.40;0.60;0.60
71794;PMS7003;59641;45.188;5.712;2023-04-01T23:48:41;1.00;1.00;0.60
71794;PMS7003;59641;45.188;5.712;2023-04-01T23:51:17;1.00;1.00;0.00
71794;PMS7003;59641;45.188;5.712;2023-04-01T23:54:11;4.00;2.00;2.00
71794;PMS7003;59641;45.188;5.712;2023-04-01T23:56:43;3.50;3.50;2.50
71794;PMS7003;59641;45.188;5.712;2023-04-01T23:59:19;3.25;3.25;3.00
